Time;durP1;ratioP1;P1;durP2;ratioP2;P2;SDS_P1;SDS_P2;PMS_P1;PMS_P2;Temp;Humidity;BMP_temperature;BMP_pressure;BME280_temperature;BME280_humidity;BME280_pressure;Samples;Min_cycle;Max_cycle;Signal;HPM_P1;HPM_P2
2021/07/15 00:02:17;;;;;;;8.97;6.70;;;27.40;99.90;;;;;;5039754;28;20580;-96
2021/07/15 00:04:51;;;;;;;10.63;6.67;;;27.70;99.90;;;;;;5038436;28;20231;-93
2021/07/15 00:07:23;;;;;;;7.20;6.30;;;27.50;99.90;;;;;;5040056;28;20286;-94
2021/07/15 00:09:59;;;;;;;10.60;6.50;;;27.30;99.90;;;;;;5040119;28;20228;-95
2021/07/15 00:12:30;;;;;;;13.07;6.67;;;27.40;99.90;;;;;;5038197;28;20230;-94
2021/07/15 00:15:03;;;;;;;6.93;6.23;;;26.80;99.90;;;;;;5036493;28;20252;-94
2021/07/15 00:17:35;;;;;;;7.53;6.20;;;26.80;99.90;;;;;;5039809;28;20277;-94
2021/07/15 00:20:13;;;;;;;8.40;5.93;;;26.90;99.90;;;;;;5038881;28;20208;-94
2021/07/15 00:22:48;;;;;;;7.33;5.90;;;27.10;99.90;;;;;;5037231;28;20208;-95
2021/07/15 00:25:21;;;;;;;8.47;6.10;;;27.50;99.90;;;;;;5038425;28;20232;-95
2021/07/15 00:27:52;;;;;;;6.33;5.73;;;27.80;99.90;;;;;;5039498;28;20209;-94
2021/07/15 00:30:24;;;;;;;7.90;6.10;;;27.60;99.90;;;;;;5039653;28;20611;-93
2021/07/15 00:32:55;;;;;;;6.70;5.93;;;27.60;99.90;;;;;;5038681;28;20224;-93
2021/07/15 00:35:29;;;;;;;7.13;5.53;;;27.70;99.90;;;;;;5042393;28;20271;-94
2021/07/15 00:38:01;;;;;;;7.60;5.80;;;27.80;99.90;;;;;;5027636;28;20277;-94
2021/07/15 00:40:33;;;;;;;9.70;5.63;;;27.80;99.90;;;;;;5024503;28;20663;-94
2021/07/15 00:43:05;;;;;;;9.57;5.90;;;28.00;99.90;;;;;;5026811;28;20210;-93
2021/07/15 00:45:36;;;;;;;7.83;5.70;;;27.90;99.90;;;;;;5037500;28;20209;-95
2021/07/15 00:48:09;;;;;;;8.10;6.10;;;27.90;99.90;;;;;;5036858;28;20236;-95
2021/07/15 00:50:43;;;;;;;7.97;6.43;;;27.50;99.90;;;;;;5036479;28;20193;-94
2021/07/15 00:53:16;;;;;;;7.77;6.03;;;27.60;99.90;;;;;;5036839;28;20193;-94
2021/07/15 00:55:48;;;;;;;8.10;5.93;;;27.60;99.90;;;;;;5019526;28;20205;-95
2021/07/15 00:58:20;;;;;;;7.67;6.70;;;27.60;99.90;;;;;;5017223;28;20232;-94
2021/07/15 01:00:51;;;;;;;7.90;6.03;;;27.40;99.90;;;;;;5016442;28;20243;-94
2021/07/15 01:03:24;;;;;;;10.07;6.30;;;28.30;99.90;;;;;;5017157;28;20221;-94
2021/07/15 01:05:58;;;;;;;6.27;5.67;;;28.40;99.90;;;;;;5017743;28;20209;-95
2021/07/15 01:08:29;;;;;;;6.50;5.90;;;28.70;99.90;;;;;;5036422;28;20232;-95
2021/07/15 01:11:09;;;;;;;7.80;6.37;;;29.30;99.90;;;;;;5034173;28;20603;-94
2021/07/15 01:13:47;;;;;;;6.63;5.87;;;29.30;99.90;;;;;;5034262;28;20221;-94
2021/07/15 01:16:25;;;;;;;9.50;6.57;;;29.70;99.90;;;;;;5033525;28;20193;-94
2021/07/15 01:19:32;;;;;;;8.63;6.40;;;29.90;99.90;;;;;;5025655;28;20197;-94
2021/07/15 01:22:18;;;;;;;6.70;6.07;;;30.20;99.90;;;;;;5024782;28;20223;-94
2021/07/15 01:25:40;;;;;;;6.70;6.10;;;30.80;99.90;;;;;;5065102;28;20200;-94
2021/07/15 01:28:18;;;;;;;7.40;5.87;;;30.70;99.90;;;;;;5070432;28;20185;-95
2021/07/15 01:30:57;;;;;;;7.17;6.40;;;30.00;99.90;;;;;;5054464;28;20212;-94
2021/07/15 01:33:32;;;;;;;8.33;6.23;;;29.50;99.90;;;;;;5053740;28;20205;-95
2021/07/15 01:36:09;;;;;;;7.23;6.23;;;29.90;99.90;;;;;;5036634;22;20249;-95
2021/07/15 01:38:45;;;;;;;8.23;6.07;;;29.90;99.90;;;;;;5005436;28;20209;-95
2021/07/15 01:41:24;;;;;;;8.47;5.83;;;29.90;99.90;;;;;;4996238;28;20207;-94
2021/07/15 01:44:01;;;;;;;8.77;6.37;;;29.50;99.90;;;;;;4997112;28;20651;-93
2021/07/15 01:46:35;;;;;;;8.00;6.30;;;30.00;99.90;;;;;;5006468;28;20210;-93
2021/07/15 01:49:08;;;;;;;6.90;6.17;;;30.10;99.90;;;;;;5001629;28;20221;-93
2021/07/15 01:51:41;;;;;;;10.23;6.27;;;30.30;99.90;;;;;;4997747;28;20229;-95
2021/07/15 01:54:13;;;;;;;8.60;6.57;;;29.70;99.90;;;;;;4980414;28;20265;-95
2021/07/15 01:56:46;;;;;;;9.10;6.60;;;29.70;99.90;;;;;;4980618;28;20444;-94
2021/07/15 01:59:25;;;;;;;8.33;6.43;;;29.80;99.90;;;;;;4996273;28;20260;-94
2021/07/15 02:02:00;;;;;;;8.33;6.93;;;29.50;99.90;;;;;;4977615;28;20646;-94
2021/07/15 02:04:34;;;;;;;9.40;6.60;;;29.10;99.90;;;;;;4997030;28;20210;-94
2021/07/15 02:07:06;;;;;;;10.07;6.00;;;29.20;99.90;;;;;;4996468;28;20291;-94
2021/07/15 02:09:39;;;;;;;8.50;6.70;;;29.80;99.90;;;;;;4997264;28;20238;-93
2021/07/15 02:12:12;;;;;;;7.50;6.47;;;28.90;99.90;;;;;;5007478;28;20218;-94
2021/07/15 02:14:45;;;;;;;8.97;6.83;;;29.30;99.90;;;;;;5015333;28;20267;-95
2021/07/15 02:17:18;;;;;;;6.63;5.90;;;29.30;99.90;;;;;;5010003;28;20217;-95
2021/07/15 02:19:51;;;;;;;9.43;6.60;;;29.80;99.90;;;;;;5005074;28;20278;-95
2021/07/15 02:22:24;;;;;;;8.40;6.37;;;29.80;99.90;;;;;;5007722;28;20221;-95
2021/07/15 02:24:55;;;;;;;7.40;6.60;;;29.60;99.90;;;;;;5011571;28;20241;-95
2021/07/15 02:27:28;;;;;;;7.10;6.40;;;28.50;99.90;;;;;;5013453;28;20577;-94
2021/07/15 02:30:00;;;;;;;11.63;6.37;;;27.70;99.90;;;;;;5008251;28;20694;-96
2021/07/15 02:32:52;;;;;;;10.03;6.10;;;27.30;99.90;;;;;;5000302;28;20229;-95
2021/07/15 02:35:25;;;;;;;7.80;6.53;;;27.30;99.90;;;;;;4999952;28;20601;-95
2021/07/15 02:37:59;;;;;;;8.17;6.37;;;27.10;99.90;;;;;;4999639;28;20685;-95
2021/07/15 02:40:31;;;;;;;8.57;6.40;;;26.80;99.90;;;;;;4999078;28;20289;-95
2021/07/15 02:43:06;;;;;;;7.13;6.43;;;26.50;99.90;;;;;;5000498;28;20664;-95
2021/07/15 02:45:37;;;;;;;7.80;6.53;;;26.10;99.90;;;;;;4999820;28;20232;-96
2021/07/15 02:48:12;;;;;;;8.43;6.17;;;25.60;99.90;;;;;;4999582;28;20203;-96
2021/07/15 02:50:43;;;;;;;7.23;5.50;;;25.20;99.90;;;;;;4998236;28;20293;-95
2021/07/15 02:53:15;;;;;;;8.20;6.47;;;24.80;99.90;;;;;;4999868;28;20269;-95
2021/07/15 02:55:51;;;;;;;7.53;6.40;;;24.70;99.90;;;;;;4998504;28;20675;-96
2021/07/15 02:58:28;;;;;;;7.23;5.90;;;24.50;99.90;;;;;;4982248;28;20238;-95
2021/07/15 03:01:02;;;;;;;12.03;6.17;;;24.10;99.90;;;;;;4997792;28;20682;-95
2021/07/15 03:03:48;;;;;;;8.70;5.70;;;24.00;99.90;;;;;;4998070;28;20209;-96
2021/07/15 03:06:28;;;;;;;7.77;5.90;;;23.90;99.90;;;;;;4998653;28;20218;-95
2021/07/15 03:09:03;;;;;;;6.80;6.10;;;23.70;99.90;;;;;;4998434;28;20214;-96
2021/07/15 03:11:38;;;;;;;6.13;5.53;;;23.60;99.90;;;;;;4997584;28;20685;-95
2021/07/15 03:14:11;;;;;;;9.53;5.33;;;23.50;99.90;;;;;;4998550;28;20233;-94
2021/07/15 03:16:44;;;;;;;7.50;4.97;;;23.40;99.90;;;;;;4991944;28;20710;-95
2021/07/15 03:19:19;;;;;;;8.30;5.30;;;23.30;99.90;;;;;;4964901;28;20241;-94
2021/07/15 03:21:52;;;;;;;8.23;5.67;;;23.20;99.90;;;;;;4996813;28;20205;-95
2021/07/15 03:24:25;;;;;;;6.70;5.57;;;23.10;99.90;;;;;;4991854;28;20232;-95
2021/07/15 03:27:03;;;;;;;7.77;5.93;;;23.10;99.90;;;;;;4997936;28;20221;-94
2021/07/15 03:29:35;;;;;;;7.70;5.83;;;23.00;99.90;;;;;;4996176;28;20280;-94
2021/07/15 03:32:09;;;;;;;8.13;5.97;;;22.80;99.90;;;;;;4987163;28;20305;-96
2021/07/15 03:34:43;;;;;;;8.00;6.10;;;22.70;99.90;;;;;;4995566;28;20543;-94
2021/07/15 03:37:16;;;;;;;7.87;6.03;;;22.60;99.90;;;;;;4997149;28;20211;-94
2021/07/15 03:39:49;;;;;;;9.37;6.30;;;22.60;99.90;;;;;;4997969;28;20294;-94
2021/07/15 03:42:23;;;;;;;8.07;5.70;;;22.40;99.90;;;;;;4978663;28;20237;-95
2021/07/15 03:44:55;;;;;;;7.13;5.90;;;22.40;99.90;;;;;;4962357;28;20231;-94
2021/07/15 03:47:27;;;;;;;8.03;5.67;;;22.20;99.90;;;;;;4986635;28;20270;-95
2021/07/15 03:50:01;;;;;;;6.43;5.77;;;22.20;99.90;;;;;;4999319;28;20218;-95
2021/07/15 03:52:33;;;;;;;7.47;5.77;;;22.10;99.90;;;;;;4982030;28;20195;-96
2021/07/15 03:55:05;;;;;;;9.23;6.30;;;21.90;99.90;;;;;;4994610;28;20191;-95
2021/07/15 03:57:37;;;;;;;9.10;5.50;;;21.90;99.90;;;;;;5004347;28;20214;-95
2021/07/15 04:00:09;;;;;;;8.20;6.30;;;21.80;99.90;;;;;;4993342;28;20269;-95
2021/07/15 04:02:41;;;;;;;8.17;6.20;;;21.70;99.90;;;;;;4997673;28;20206;-95
2021/07/15 04:05:15;;;;;;;9.27;6.53;;;21.60;99.90;;;;;;4997351;28;20244;-95
2021/07/15 04:07:47;;;;;;;9.27;6.07;;;21.50;99.90;;;;;;4996953;28;20277;-95
2021/07/15 04:10:19;;;;;;;8.07;5.80;;;21.50;99.90;;;;;;4978876;28;20265;-95
2021/07/15 04:12:53;;;;;;;8.60;5.80;;;21.40;99.90;;;;;;4990860;28;20230;-95
2021/07/15 04:15:32;;;;;;;7.37;5.70;;;21.30;99.90;;;;;;4993234;28;20237;-96
2021/07/15 04:18:05;;;;;;;8.03;6.13;;;21.20;99.90;;;;;;4994061;28;20633;-95
2021/07/15 04:20:42;;;;;;;6.47;5.50;;;21.10;99.90;;;;;;4987964;28;20206;-95
2021/07/15 04:23:15;;;;;;;7.03;5.50;;;21.10;99.90;;;;;;4977016;28;20289;-95
2021/07/15 04:25:49;;;;;;;8.10;5.83;;;21.00;99.90;;;;;;4977435;28;20290;-95
2021/07/15 04:28:20;;;;;;;8.70;5.90;;;20.80;99.90;;;;;;4976640;28;20230;-95
2021/07/15 04:30:53;;;;;;;10.90;6.67;;;20.80;99.90;;;;;;4991830;28;20751;-95
2021/07/15 04:33:25;;;;;;;6.93;5.67;;;20.70;99.90;;;;;;4996397;28;20311;-95
2021/07/15 04:35:59;;;;;;;9.07;6.40;;;20.70;99.90;;;;;;4991378;28;20257;-94
2021/07/15 04:38:30;;;;;;;7.03;5.80;;;20.60;99.90;;;;;;4979780;28;20675;-95
2021/07/15 04:41:02;;;;;;;13.67;5.97;;;20.50;99.90;;;;;;4980641;28;20285;-95
2021/07/15 04:43:34;;;;;;;9.70;6.10;;;20.50;99.90;;;;;;4976950;28;20211;-94
2021/07/15 04:46:06;;;;;;;9.70;5.50;;;20.50;99.90;;;;;;4977359;28;20238;-94
2021/07/15 04:48:38;;;;;;;8.50;5.87;;;20.40;99.90;;;;;;4968907;28;20207;-92
2021/07/15 04:51:14;;;;;;;8.33;5.17;;;20.40;99.90;;;;;;4976088;28;20247;-93
2021/07/15 04:53:46;;;;;;;11.27;5.60;;;20.50;99.90;;;;;;4976624;28;20217;-95
2021/07/15 04:56:18;;;;;;;10.43;5.13;;;20.40;99.90;;;;;;4978608;28;20227;-95
2021/07/15 04:58:50;;;;;;;9.67;4.90;;;20.30;99.90;;;;;;4981171;28;20207;-95
2021/07/15 05:01:21;;;;;;;7.70;4.87;;;20.20;99.90;;;;;;4971749;28;20294;-95
2021/07/15 05:03:53;;;;;;;6.50;4.83;;;20.20;99.90;;;;;;4976961;28;20222;-95
2021/07/15 05:06:25;;;;;;;8.90;5.67;;;20.10;99.90;;;;;;4976645;28;20242;-94
2021/07/15 05:08:57;;;;;;;8.13;4.80;;;20.20;99.90;;;;;;4991698;28;20260;-94
2021/07/15 05:11:28;;;;;;;9.33;6.20;;;20.10;99.90;;;;;;4995339;28;20264;-95
2021/07/15 05:13:59;;;;;;;7.67;5.27;;;20.00;99.90;;;;;;4962822;28;20237;-95
2021/07/15 05:16:30;;;;;;;6.63;4.70;;;19.90;99.90;;;;;;4976424;28;20238;-94
2021/07/15 05:19:01;;;;;;;9.00;5.03;;;19.80;99.90;;;;;;4977028;28;20214;-94
2021/07/15 05:21:34;;;;;;;6.27;4.37;;;19.80;99.90;;;;;;5014952;28;20255;-94
2021/07/15 05:24:05;;;;;;;6.70;4.17;;;19.70;99.90;;;;;;5015743;28;20209;-94
2021/07/15 05:26:36;;;;;;;5.83;4.47;;;19.70;99.90;;;;;;5015865;28;20216;-94
2021/07/15 05:29:09;;;;;;;6.77;4.10;;;19.70;99.90;;;;;;4996863;28;20222;-94
2021/07/15 05:31:40;;;;;;;5.80;3.67;;;19.60;99.90;;;;;;4995411;28;20221;-94
2021/07/15 05:34:12;;;;;;;6.53;4.10;;;19.60;99.90;;;;;;4993006;28;20198;-93
2021/07/15 05:36:46;;;;;;;5.80;4.40;;;19.50;99.90;;;;;;4976457;28;20321;-95
2021/07/15 05:39:18;;;;;;;6.37;4.20;;;19.40;99.90;;;;;;4980406;28;20205;-95
2021/07/15 05:41:49;;;;;;;9.10;4.40;;;19.40;99.90;;;;;;4996977;28;20266;-94
2021/07/15 05:44:21;;;;;;;5.30;3.97;;;19.30;99.90;;;;;;4996430;28;20218;-95
2021/07/15 05:46:53;;;;;;;5.43;4.00;;;19.30;99.90;;;;;;4996878;28;20667;-95
2021/07/15 05:49:37;;;;;;;6.97;4.77;;;19.30;99.90;;;;;;4981196;28;20215;-95
2021/07/15 05:52:11;;;;;;;6.27;3.90;;;19.20;99.90;;;;;;4995963;28;20742;-95
2021/07/15 05:54:43;;;;;;;6.73;4.13;;;19.10;99.90;;;;;;4960945;28;20210;-95
2021/07/15 05:57:14;;;;;;;8.10;3.90;;;19.10;99.90;;;;;;4994633;28;20280;-95
2021/07/15 05:59:46;;;;;;;9.43;4.27;;;19.10;99.90;;;;;;5001490;28;20711;-95
2021/07/15 06:02:18;;;;;;;5.20;4.07;;;19.00;99.90;;;;;;4991891;28;20686;-95
2021/07/15 06:04:49;;;;;;;7.40;3.70;;;19.00;99.90;;;;;;4990829;28;20232;-95
2021/07/15 06:07:23;;;;;;;7.13;3.57;;;19.00;99.90;;;;;;4995875;28;20226;-96
2021/07/15 06:09:54;;;;;;;5.57;3.70;;;18.90;99.90;;;;;;5001447;28;20190;-95
2021/07/15 06:12:25;;;;;;;6.07;3.63;;;18.90;99.90;;;;;;5018915;28;20198;-96
2021/07/15 06:14:56;;;;;;;5.53;3.70;;;18.80;99.90;;;;;;5020896;28;20206;-96
2021/07/15 06:17:30;;;;;;;6.97;3.20;;;18.80;99.90;;;;;;5020823;28;20218;-93
2021/07/15 06:20:02;;;;;;;5.47;3.60;;;18.80;99.90;;;;;;5010780;28;20213;-95
2021/07/15 06:22:37;;;;;;;6.17;3.50;;;18.70;99.90;;;;;;5015250;28;20202;-95
2021/07/15 06:25:10;;;;;;;5.77;3.20;;;18.70;99.90;;;;;;5000687;28;20336;-95
2021/07/15 06:27:42;;;;;;;8.37;3.93;;;18.70;99.90;;;;;;5001665;28;20241;-95
2021/07/15 06:30:15;;;;;;;4.57;3.20;;;18.60;99.90;;;;;;4999409;28;20675;-95
2021/07/15 06:32:47;;;;;;;5.57;3.63;;;18.50;99.90;;;;;;5002395;28;20674;-95
2021/07/15 06:35:21;;;;;;;7.03;3.63;;;18.50;99.90;;;;;;4988719;28;20207;-95
2021/07/15 06:37:56;;;;;;;5.33;3.40;;;18.50;99.90;;;;;;4999346;28;20717;-95
2021/07/15 06:40:27;;;;;;;5.57;3.57;;;18.40;99.90;;;;;;4993439;28;20237;-95
2021/07/15 06:42:57;;;;;;;7.10;3.30;;;18.40;99.90;;;;;;4995458;28;20206;-95
2021/07/15 06:45:29;;;;;;;7.40;3.53;;;18.40;99.90;;;;;;4979891;28;20238;-94
2021/07/15 06:48:00;;;;;;;8.53;2.93;;;18.30;99.90;;;;;;4998013;28;20221;-95
2021/07/15 06:50:32;;;;;;;5.40;3.17;;;18.20;99.90;;;;;;4979151;28;20211;-95
2021/07/15 06:53:06;;;;;;;8.07;3.00;;;18.20;99.90;;;;;;4979300;28;20216;-94
2021/07/15 06:55:37;;;;;;;6.97;3.47;;;18.20;99.90;;;;;;4986569;28;20228;-95
2021/07/15 06:58:08;;;;;;;7.30;3.40;;;18.10;99.90;;;;;;4997205;28;20297;-94
2021/07/15 07:00:40;;;;;;;7.73;3.30;;;18.10;99.90;;;;;;5017508;28;20190;-95
2021/07/15 07:03:12;;;;;;;8.37;3.33;;;17.90;99.90;;;;;;5010162;28;20207;-94
2021/07/15 07:05:43;;;;;;;6.53;3.27;;;17.70;99.90;;;;;;4986754;28;20222;-94
2021/07/15 07:08:18;;;;;;;7.87;3.43;;;17.60;99.90;;;;;;4994874;28;20215;-95
2021/07/15 07:10:49;;;;;;;12.73;3.37;;;17.70;99.90;;;;;;5007838;28;20236;-94
2021/07/15 07:13:21;;;;;;;7.03;3.23;;;17.60;99.90;;;;;;4965781;28;20285;-94
2021/07/15 07:15:52;;;;;;;11.00;3.50;;;17.60;99.90;;;;;;4979092;28;20232;-94
2021/07/15 07:18:23;;;;;;;8.13;3.40;;;17.60;99.90;;;;;;4963035;28;20715;-95
2021/07/15 07:20:55;;;;;;;7.40;3.53;;;17.60;99.90;;;;;;4977459;28;20649;-95
2021/07/15 07:23:28;;;;;;;8.37;3.23;;;17.50;99.90;;;;;;5001627;28;20220;-95
2021/07/15 07:26:00;;;;;;;7.73;3.27;;;17.40;99.90;;;;;;5007450;28;20317;-94
2021/07/15 07:28:31;;;;;;;8.30;3.73;;;17.40;99.90;;;;;;4997894;28;20301;-94
2021/07/15 07:31:02;;;;;;;11.07;4.03;;;17.30;99.90;;;;;;4997531;28;20206;-94
2021/07/15 07:33:33;;;;;;;8.33;3.27;;;17.30;99.90;;;;;;4998406;28;20260;-94
2021/07/15 07:36:04;;;;;;;7.93;3.40;;;17.20;99.90;;;;;;4997674;28;20671;-95
2021/07/15 07:38:37;;;;;;;10.07;3.83;;;17.00;99.90;;;;;;4997375;28;20260;-95
2021/07/15 07:41:09;;;;;;;8.60;3.80;;;16.90;99.90;;;;;;4975163;28;20825;-95
2021/07/15 07:43:40;;;;;;;11.97;3.23;;;16.80;99.90;;;;;;4999303;28;20230;-95
2021/07/15 07:46:11;;;;;;;7.93;3.43;;;16.80;99.90;;;;;;4998316;28;20290;-95
2021/07/15 07:48:44;;;;;;;7.53;3.40;;;16.70;99.90;;;;;;4966416;28;20218;-95
2021/07/15 07:51:17;;;;;;;7.20;3.03;;;16.70;99.90;;;;;;4997363;28;20233;-95
2021/07/15 07:53:51;;;;;;;7.17;3.30;;;16.60;99.90;;;;;;4997426;28;20297;-95
2021/07/15 07:56:22;;;;;;;9.33;3.63;;;16.50;99.90;;;;;;4998399;28;20209;-94
2021/07/15 07:58:53;;;;;;;11.07;3.63;;;16.60;99.90;;;;;;4998133;28;20320;-93
2021/07/15 08:01:24;;;;;;;7.57;3.50;;;16.50;99.90;;;;;;4996064;28;20293;-95
2021/07/15 08:03:57;;;;;;;8.77;3.10;;;16.50;99.90;;;;;;4996990;28;20667;-95
2021/07/15 08:06:34;;;;;;;9.97;3.07;;;16.50;99.90;;;;;;4997847;28;20230;-93
2021/07/15 08:09:12;;;;;;;8.33;3.07;;;16.50;99.90;;;;;;4982000;28;20210;-95
2021/07/15 08:11:48;;;;;;;6.10;3.23;;;16.40;99.90;;;;;;4997235;28;20202;-96
2021/07/15 08:14:20;;;;;;;7.87;3.10;;;16.20;99.90;;;;;;4998129;28;20675;-95
2021/07/15 08:16:53;;;;;;;10.10;2.87;;;16.10;99.90;;;;;;4997965;28;20573;-95
2021/07/15 08:19:25;;;;;;;6.33;2.80;;;16.10;99.90;;;;;;5009210;28;20244;-95
2021/07/15 08:21:56;;;;;;;6.40;3.13;;;15.90;99.90;;;;;;4978319;28;20211;-95
2021/07/15 08:24:31;;;;;;;5.80;2.33;;;15.80;99.90;;;;;;4978056;28;20219;-94
2021/07/15 08:27:02;;;;;;;7.27;2.60;;;15.70;99.90;;;;;;4977888;28;20241;-95
2021/07/15 08:29:33;;;;;;;7.50;2.80;;;15.60;99.90;;;;;;4962458;28;20646;-95
2021/07/15 08:32:06;;;;;;;5.60;2.40;;;15.50;99.90;;;;;;5002131;28;20237;-95
2021/07/15 08:34:37;;;;;;;8.13;3.00;;;15.40;99.90;;;;;;5016870;28;20223;-94
2021/07/15 08:37:08;;;;;;;6.77;2.73;;;15.30;99.90;;;;;;5015919;28;20192;-95
2021/07/15 08:39:42;;;;;;;7.93;2.43;;;15.30;99.90;;;;;;4999921;28;20226;-95
2021/07/15 08:42:14;;;;;;;6.13;2.50;;;15.30;99.90;;;;;;4999640;28;20265;-96
2021/07/15 08:44:46;;;;;;;8.03;3.10;;;15.10;99.90;;;;;;4964737;28;20218;-94
2021/07/15 08:47:17;;;;;;;7.10;2.90;;;15.10;99.90;;;;;;4984480;28;20246;-94
2021/07/15 08:49:50;;;;;;;9.37;3.07;;;15.00;99.90;;;;;;4962775;28;20302;-94
2021/07/15 08:52:21;;;;;;;6.13;2.80;;;15.00;99.90;;;;;;4983167;28;20221;-94
2021/07/15 08:55:00;;;;;;;7.97;2.87;;;15.00;99.90;;;;;;4964154;28;20210;-94
2021/07/15 08:57:30;;;;;;;6.40;2.90;;;14.80;99.90;;;;;;4977880;28;20210;-96
2021/07/15 09:00:01;;;;;;;8.03;2.90;;;14.70;99.90;;;;;;4984758;28;20241;-95
2021/07/15 09:02:32;;;;;;;6.03;2.60;;;14.70;99.90;;;;;;4997142;28;20672;-95
2021/07/15 09:05:07;;;;;;;11.77;3.10;;;14.60;99.90;;;;;;4996294;28;20218;-95
2021/07/15 09:07:41;;;;;;;6.47;3.00;;;14.60;99.90;;;;;;4996634;28;20293;-96
2021/07/15 09:10:16;;;;;;;6.57;2.83;;;14.60;99.90;;;;;;4995667;28;20742;-95
2021/07/15 09:12:47;;;;;;;8.23;2.97;;;14.60;99.90;;;;;;4996210;28;20209;-95
2021/07/15 09:15:18;;;;;;;9.03;3.07;;;14.50;99.90;;;;;;4995916;28;20245;-95
2021/07/15 09:17:51;;;;;;;7.67;2.80;;;14.40;99.90;;;;;;4995936;28;20241;-95
2021/07/15 09:20:24;;;;;;;6.57;3.17;;;14.40;99.90;;;;;;4995696;28;20214;-95
2021/07/15 09:23:02;;;;;;;9.10;2.80;;;14.30;99.90;;;;;;4979189;28;20296;-95
2021/07/15 09:25:56;;;;;;;10.73;3.37;;;14.30;99.90;;;;;;4976392;28;20253;-95
2021/07/15 09:28:30;;;;;;;8.43;3.53;;;14.30;99.90;;;;;;4976413;28;20214;-95
2021/07/15 09:31:20;;;;;;;6.60;3.20;;;14.30;99.90;;;;;;4992256;28;20300;-96
2021/07/15 09:33:52;;;;;;;8.73;3.77;;;14.30;99.90;;;;;;4995812;28;20218;-96
2021/07/15 09:36:24;;;;;;;6.73;3.30;;;14.30;99.90;;;;;;4996139;28;20276;-95
2021/07/15 09:38:55;;;;;;;5.90;3.17;;;14.20;99.90;;;;;;4995920;28;20253;-96
2021/07/15 09:41:28;;;;;;;6.80;3.20;;;14.10;99.90;;;;;;4977843;28;20207;-96
2021/07/15 09:44:03;;;;;;;5.40;3.37;;;14.20;99.90;;;;;;4990696;28;20297;-95
2021/07/15 09:46:41;;;;;;;10.93;3.50;;;14.20;99.90;;;;;;4978604;28;20229;-96
2021/07/15 09:49:12;;;;;;;6.67;3.20;;;14.20;99.90;;;;;;4995880;28;20206;-94
2021/07/15 09:51:45;;;;;;;7.80;3.20;;;14.30;99.90;;;;;;4978028;28;20198;-95
2021/07/15 09:54:17;;;;;;;6.40;3.13;;;14.30;99.90;;;;;;4995494;28;20675;-95
2021/07/15 09:56:49;;;;;;;7.37;3.10;;;14.30;99.90;;;;;;4995639;28;20210;-95
2021/07/15 09:59:22;;;;;;;9.03;3.03;;;14.30;99.90;;;;;;4995082;28;20245;-94
2021/07/15 10:01:55;;;;;;;7.10;3.40;;;14.20;99.90;;;;;;4994660;28;20211;-94
2021/07/15 10:04:31;;;;;;;6.37;3.07;;;14.20;99.90;;;;;;4995868;28;20202;-94
2021/07/15 10:07:04;;;;;;;6.30;3.70;;;14.20;99.90;;;;;;4996131;28;20226;-94
2021/07/15 10:09:35;;;;;;;6.57;3.33;;;14.10;99.90;;;;;;4995905;28;20241;-94
2021/07/15 10:12:26;;;;;;;8.03;3.80;;;14.20;99.90;;;;;;4972695;28;20277;-94
2021/07/15 10:15:10;;;;;;;5.83;3.10;;;14.10;99.90;;;;;;4995676;28;20245;-92
2021/07/15 10:17:41;;;;;;;7.63;3.70;;;14.20;99.90;;;;;;4995732;28;20210;-94
2021/07/15 10:20:14;;;;;;;6.77;3.77;;;14.20;99.90;;;;;;5013753;28;20705;-93
2021/07/15 10:22:47;;;;;;;4.80;3.33;;;14.20;99.90;;;;;;5000139;28;20209;-95
2021/07/15 10:25:19;;;;;;;6.27;3.67;;;13.90;99.90;;;;;;4999755;28;20213;-94
2021/07/15 10:27:53;;;;;;;7.73;3.93;;;13.90;99.90;;;;;;5015664;28;20305;-95
2021/07/15 10:30:24;;;;;;;6.80;4.13;;;13.80;99.90;;;;;;5015086;28;20629;-95
2021/07/15 10:32:56;;;;;;;4.70;4.00;;;13.80;99.90;;;;;;5015451;28;20248;-94
2021/07/15 10:35:28;;;;;;;10.47;4.30;;;13.80;99.90;;;;;;4998519;28;20232;-95
2021/07/15 10:38:01;;;;;;;8.20;4.47;;;13.90;99.90;;;;;;5015582;28;20221;-95
2021/07/15 10:40:32;;;;;;;11.67;5.10;;;13.70;99.90;;;;;;5013968;28;20265;-95
2021/07/15 10:43:06;;;;;;;11.93;4.73;;;13.70;99.90;;;;;;5001594;28;20213;-94
2021/07/15 10:45:38;;;;;;;9.40;4.20;;;13.70;99.90;;;;;;5019656;28;20220;-94
2021/07/15 10:48:13;;;;;;;8.60;4.47;;;13.80;99.90;;;;;;5019640;28;20205;-92
2021/07/15 10:50:46;;;;;;;5.97;3.70;;;13.80;99.90;;;;;;5018594;28;20204;-95
2021/07/15 10:53:17;;;;;;;9.13;4.57;;;13.80;99.90;;;;;;5039312;28;20193;-94
2021/07/15 10:56:06;;;;;;;7.33;4.23;;;13.80;99.90;;;;;;5024184;28;20213;-95
2021/07/15 10:58:47;;;;;;;9.43;4.33;;;13.80;99.90;;;;;;5001101;28;20293;-94
2021/07/15 11:01:51;;;;;;;11.47;5.00;;;13.80;99.90;;;;;;5000218;28;20234;-95
2021/07/15 11:04:35;;;;;;;7.63;3.90;;;13.80;99.90;;;;;;4983581;28;20254;-94
2021/07/15 11:07:27;;;;;;;6.73;3.83;;;13.80;99.90;;;;;;5000200;28;20218;-94
2021/07/15 11:10:16;;;;;;;9.63;4.27;;;13.80;99.90;;;;;;4998692;28;20218;-96
2021/07/15 11:12:57;;;;;;;9.03;4.00;;;13.90;99.90;;;;;;4998135;28;20210;-94
2021/07/15 11:15:49;;;;;;;5.90;3.60;;;13.90;99.90;;;;;;4995385;28;20210;-94
2021/07/15 11:18:51;;;;;;;6.63;4.40;;;14.00;99.90;;;;;;5000093;28;20298;-95
2021/07/15 11:21:34;;;;;;;6.60;4.23;;;13.90;99.90;;;;;;4998511;28;20209;-94
2021/07/15 11:24:41;;;;;;;8.80;4.63;;;13.90;99.90;;;;;;5000254;28;20312;-96
2021/07/15 11:27:42;;;;;;;7.97;4.50;;;13.70;99.90;;;;;;4989333;28;20280;-94
2021/07/15 11:30:27;;;;;;;9.73;5.13;;;13.70;99.90;;;;;;5002445;28;20625;-95
2021/07/15 11:33:36;;;;;;;10.60;4.57;;;13.50;99.90;;;;;;5005021;28;20222;-93
2021/07/15 11:36:13;;;;;;;9.63;4.30;;;13.60;99.90;;;;;;5018493;28;20194;-95
2021/07/15 11:38:46;;;;;;;9.37;4.03;;;13.80;99.90;;;;;;5002481;28;20209;-94
2021/07/15 11:41:19;;;;;;;8.03;4.80;;;13.90;99.90;;;;;;5010576;28;20203;-95
2021/07/15 11:43:55;;;;;;;10.77;4.67;;;13.80;99.90;;;;;;4998677;28;20211;-94
2021/07/15 11:46:34;;;;;;;7.90;4.30;;;13.70;99.90;;;;;;4996347;28;20223;-95
2021/07/15 11:49:22;;;;;;;7.67;4.80;;;13.70;99.90;;;;;;4986649;28;20625;-94
2021/07/15 11:52:04;;;;;;;6.43;4.50;;;13.80;99.90;;;;;;4978158;28;20226;-94
2021/07/15 11:54:46;;;;;;;6.63;4.90;;;13.80;99.90;;;;;;4977550;28;20233;-94
2021/07/15 11:57:25;;;;;;;7.43;4.23;;;13.90;99.90;;;;;;4977424;28;20242;-94
2021/07/15 12:00:11;;;;;;;10.10;4.50;;;13.90;99.90;;;;;;4976509;28;20269;-96
2021/07/15 12:02:59;;;;;;;6.83;4.13;;;13.80;99.90;;;;;;4977030;28;20271;-94
2021/07/15 12:05:35;;;;;;;6.90;4.70;;;13.70;99.90;;;;;;4978740;28;20214;-94
2021/07/15 12:08:11;;;;;;;10.83;4.50;;;13.80;99.90;;;;;;4978351;28;20214;-94
2021/07/15 12:10:44;;;;;;;6.77;4.33;;;13.70;99.90;;;;;;4977540;28;20277;-94
2021/07/15 12:13:16;;;;;;;5.97;4.20;;;13.70;99.90;;;;;;4978221;28;20625;-94
2021/07/15 12:15:52;;;;;;;6.87;4.40;;;13.70;99.90;;;;;;4991399;28;20217;-94
2021/07/15 12:18:23;;;;;;;9.03;4.30;;;13.80;99.90;;;;;;4997247;28;20218;-95
2021/07/15 12:20:58;;;;;;;7.47;4.30;;;13.80;99.90;;;;;;4996389;28;20707;-94
2021/07/15 12:23:32;;;;;;;5.97;3.97;;;13.90;99.90;;;;;;4997416;28;20261;-94
2021/07/15 12:26:05;;;;;;;6.80;4.10;;;14.00;99.90;;;;;;4997257;28;20296;-94
2021/07/15 12:28:37;;;;;;;10.43;4.70;;;14.10;99.90;;;;;;4997901;28;20206;-94
2021/07/15 12:31:10;;;;;;;7.07;4.47;;;14.10;99.90;;;;;;4996543;28;20592;-94
2021/07/15 12:33:43;;;;;;;7.73;4.83;;;14.10;99.90;;;;;;4997194;28;20234;-94
2021/07/15 12:36:18;;;;;;;9.77;5.30;;;14.00;99.90;;;;;;4996965;28;20590;-94
2021/07/15 12:38:51;;;;;;;10.97;5.40;;;14.00;99.90;;;;;;4996934;28;20250;-93
2021/07/15 12:41:25;;;;;;;7.63;5.27;;;13.80;99.90;;;;;;4977707;28;20260;-93
2021/07/15 12:44:00;;;;;;;10.00;5.23;;;13.90;99.90;;;;;;4977307;28;20241;-94
2021/07/15 12:46:34;;;;;;;7.77;5.80;;;13.90;99.90;;;;;;4977766;28;20289;-94
2021/07/15 12:49:16;;;;;;;7.73;5.43;;;14.10;99.90;;;;;;4977776;28;20330;-95
2021/07/15 12:51:50;;;;;;;7.97;5.53;;;14.00;99.90;;;;;;4976176;28;20289;-94
2021/07/15 12:54:29;;;;;;;8.13;5.53;;;14.00;99.90;;;;;;4977187;28;20697;-94
2021/07/15 12:57:02;;;;;;;7.33;5.37;;;14.00;99.90;;;;;;4997695;28;20214;-95
2021/07/15 12:59:46;;;;;;;10.07;5.60;;;14.10;99.90;;;;;;4996739;28;20250;-95
2021/07/15 13:02:31;;;;;;;10.47;5.30;;;13.80;99.90;;;;;;4982290;28;20210;-95
2021/07/15 13:05:17;;;;;;;9.57;5.50;;;13.80;99.90;;;;;;4997543;28;20220;-95
2021/07/15 13:07:52;;;;;;;8.73;5.80;;;13.80;99.90;;;;;;5013408;28;20190;-95
2021/07/15 13:10:34;;;;;;;8.17;5.53;;;13.80;99.90;;;;;;5016563;28;20210;-96
2021/07/15 13:15:55;;;;;;;9.87;6.27;;;13.90;99.90;;;;;;4997916;28;20206;-95
2021/07/15 13:18:28;;;;;;;8.57;6.00;;;13.80;99.90;;;;;;4997418;28;20210;-95
2021/07/15 13:21:00;;;;;;;8.73;6.40;;;13.80;99.90;;;;;;4999973;28;20238;-95
2021/07/15 13:23:38;;;;;;;10.13;6.13;;;13.70;99.90;;;;;;4999221;28;20238;-95
2021/07/15 13:26:13;;;;;;;11.23;5.53;;;13.70;99.90;;;;;;4999821;28;20292;-94
2021/07/15 13:28:44;;;;;;;10.93;6.10;;;13.70;99.90;;;;;;4999207;28;20272;-95